sensor_id;sensor_type;location;lat;lon;timestamp;P1;durP1;ratioP1;P2;durP2;ratioP2
78057;SDS011;67265;52.514;13.292;2023-05-07T00:00:14;11.82;;;7.47;;
78057;SDS011;67265;52.514;13.292;2023-05-07T00:02:44;13.30;;;6.90;;
78057;SDS011;67265;52.514;13.292;2023-05-07T00:05:11;14.25;;;7.43;;
78057;SDS011;67265;52.514;13.292;2023-05-07T00:07:39;11.45;;;6.45;;
78057;SDS011;67265;52.514;13.292;2023-05-07T00:10:05;16.67;;;7.38;;
78057;SDS011;67265;52.514;13.292;2023-05-07T00:12:33;13.38;;;7.22;;
78057;SDS011;67265;52.514;13.292;2023-05-07T00:15:02;10.40;;;6.07;;
78057;SDS011;67265;52.514;13.292;2023-05-07T00:17:29;12.05;;;6.35;;
78057;SDS011;67265;52.514;13.292;2023-05-07T00:19:56;12.05;;;6.25;;
78057;SDS011;67265;52.514;13.292;2023-05-07T00:22:23;12.10;;;6.40;;
78057;SDS011;67265;52.514;13.292;2023-05-07T00:24:49;9.75;;;5.97;;
78057;SDS011;67265;52.514;13.292;2023-05-07T00:27:16;12.60;;;6.43;;
78057;SDS011;67265;52.514;13.292;2023-05-07T00:29:42;11.10;;;6.35;;
78057;SDS011;67265;52.514;13.292;2023-05-07T00:32:09;11.50;;;6.78;;
78057;SDS011;67265;52.514;13.292;2023-05-07T00:34:35;10.60;;;5.82;;
78057;SDS011;67265;52.514;13.292;2023-05-07T00:37:02;12.13;;;6.70;;
78057;SDS011;67265;52.514;13.292;2023-05-07T00:39:31;9.00;;;5.50;;
78057;SDS011;67265;52.514;13.292;2023-05-07T00:41:58;10.13;;;5.97;;
78057;SDS011;67265;52.514;13.292;2023-05-07T00:44:24;12.05;;;6.35;;
78057;SDS011;67265;52.514;13.292;2023-05-07T00:46:51;11.18;;;6.53;;
78057;SDS011;67265;52.514;13.292;2023-05-07T00:49:18;15.13;;;6.07;;
78057;SDS011;67265;52.514;13.292;2023-05-07T00:51:44;9.32;;;5.93;;
78057;SDS011;67265;52.514;13.292;2023-05-07T00:54:11;13.00;;;6.13;;
78057;SDS011;67265;52.514;13.292;2023-05-07T00:56:38;9.85;;;5.78;;
78057;SDS011;67265;52.514;13.292;2023-05-07T00:59:05;10.68;;;6.03;;
78057;SDS011;67265;52.514;13.292;2023-05-07T01:01:32;10.40;;;5.53;;
78057;SDS011;67265;52.514;13.292;2023-05-07T01:03:59;8.38;;;5.53;;
78057;SDS011;67265;52.514;13.292;2023-05-07T01:06:26;9.82;;;5.78;;
78057;SDS011;67265;52.514;13.292;2023-05-07T01:08:54;9.82;;;5.45;;
78057;SDS011;67265;52.514;13.292;2023-05-07T01:11:22;16.20;;;5.88;;
78057;SDS011;67265;52.514;13.292;2023-05-07T01:13:49;11.35;;;6.43;;
78057;SDS011;67265;52.514;13.292;2023-05-07T01:16:16;11.82;;;5.90;;
78057;SDS011;67265;52.514;13.292;2023-05-07T01:18:43;10.07;;;5.70;;
78057;SDS011;67265;52.514;13.292;2023-05-07T01:21:10;11.00;;;6.15;;
78057;SDS011;67265;52.514;13.292;2023-05-07T01:23:37;9.32;;;5.78;;
78057;SDS011;67265;52.514;13.292;2023-05-07T01:26:04;15.52;;;5.88;;
78057;SDS011;67265;52.514;13.292;2023-05-07T01:28:31;9.20;;;5.43;;
78057;SDS011;67265;52.514;13.292;2023-05-07T01:31:01;7.82;;;4.72;;
78057;SDS011;67265;52.514;13.292;2023-05-07T01:33:30;7.32;;;4.95;;
78057;SDS011;67265;52.514;13.292;2023-05-07T01:35:59;7.82;;;4.70;;
78057;SDS011;67265;52.514;13.292;2023-05-07T01:38:28;9.25;;;5.05;;
78057;SDS011;67265;52.514;13.292;2023-05-07T01:40:55;9.85;;;4.95;;
78057;SDS011;67265;52.514;13.292;2023-05-07T01:43:22;9.77;;;5.20;;
78057;SDS011;67265;52.514;13.292;2023-05-07T01:45:48;9.07;;;5.10;;
78057;SDS011;67265;52.514;13.292;2023-05-07T01:48:15;8.18;;;4.78;;
78057;SDS011;67265;52.514;13.292;2023-05-07T01:50:42;9.95;;;6.00;;
78057;SDS011;67265;52.514;13.292;2023-05-07T01:53:09;9.63;;;5.38;;
78057;SDS011;67265;52.514;13.292;2023-05-07T01:55:35;9.32;;;4.97;;
78057;SDS011;67265;52.514;13.292;2023-05-07T01:58:03;8.18;;;5.25;;
78057;SDS011;67265;52.514;13.292;2023-05-07T02:00:30;9.18;;;5.47;;
78057;SDS011;67265;52.514;13.292;2023-05-07T02:02:57;9.55;;;5.43;;
78057;SDS011;67265;52.514;13.292;2023-05-07T02:05:24;7.50;;;4.63;;
78057;SDS011;67265;52.514;13.292;2023-05-07T02:07:51;9.68;;;5.07;;
78057;SDS011;67265;52.514;13.292;2023-05-07T02:10:17;10.05;;;5.55;;
78057;SDS011;67265;52.514;13.292;2023-05-07T02:12:43;9.57;;;5.50;;
78057;SDS011;67265;52.514;13.292;2023-05-07T02:15:10;11.27;;;6.05;;
78057;SDS011;67265;52.514;13.292;2023-05-07T02:17:39;10.38;;;5.60;;
78057;SDS011;67265;52.514;13.292;2023-05-07T02:20:06;9.32;;;5.38;;
78057;SDS011;67265;52.514;13.292;2023-05-07T02:22:39;8.75;;;5.28;;
78057;SDS011;67265;52.514;13.292;2023-05-07T02:25:06;9.23;;;5.35;;
78057;SDS011;67265;52.514;13.292;2023-05-07T02:27:32;9.68;;;5.78;;
78057;SDS011;67265;52.514;13.292;2023-05-07T02:29:59;9.73;;;5.32;;
78057;SDS011;67265;52.514;13.292;2023-05-07T02:32:25;9.40;;;5.72;;
78057;SDS011;67265;52.514;13.292;2023-05-07T02:34:52;10.65;;;5.88;;
78057;SDS011;67265;52.514;13.292;2023-05-07T02:37:19;9.82;;;5.85;;
78057;SDS011;67265;52.514;13.292;2023-05-07T02:39:46;13.10;;;6.38;;
78057;SDS011;67265;52.514;13.292;2023-05-07T02:42:12;9.40;;;5.18;;
78057;SDS011;67265;52.514;13.292;2023-05-07T02:44:39;10.45;;;5.85;;
78057;SDS011;67265;52.514;13.292;2023-05-07T02:47:05;10.98;;;6.10;;
78057;SDS011;67265;52.514;13.292;2023-05-07T02:49:34;9.80;;;6.28;;
78057;SDS011;67265;52.514;13.292;2023-05-07T02:52:00;11.02;;;6.13;;
78057;SDS011;67265;52.514;13.292;2023-05-07T02:54:27;12.00;;;5.72;;
78057;SDS011;67265;52.514;13.292;2023-05-07T02:56:54;10.13;;;5.85;;
78057;SDS011;67265;52.514;13.292;2023-05-07T02:59:20;10.10;;;5.53;;
78057;SDS011;67265;52.514;13.292;2023-05-07T03:01:46;10.98;;;5.45;;
78057;SDS011;67265;52.514;13.292;2023-05-07T03:04:14;8.40;;;5.13;;
78057;SDS011;67265;52.514;13.292;2023-05-07T03:06:41;9.77;;;5.43;;
78057;SDS011;67265;52.514;13.292;2023-05-07T03:09:08;9.43;;;5.47;;
78057;SDS011;67265;52.514;13.292;2023-05-07T03:11:34;10.07;;;4.80;;
78057;SDS011;67265;52.514;13.292;2023-05-07T03:14:01;10.23;;;5.15;;
78057;SDS011;67265;52.514;13.292;2023-05-07T03:16:28;8.73;;;5.50;;
78057;SDS011;67265;52.514;13.292;2023-05-07T03:18:54;8.27;;;5.30;;
78057;SDS011;67265;52.514;13.292;2023-05-07T03:21:21;10.25;;;4.70;;
78057;SDS011;67265;52.514;13.292;2023-05-07T03:23:48;9.45;;;5.82;;
78057;SDS011;67265;52.514;13.292;2023-05-07T03:26:14;7.80;;;4.40;;
78057;SDS011;67265;52.514;13.292;2023-05-07T03:28:41;8.35;;;4.78;;
78057;SDS011;67265;52.514;13.292;2023-05-07T03:31:07;8.55;;;4.95;;
78057;SDS011;67265;52.514;13.292;2023-05-07T03:33:34;12.23;;;4.93;;
78057;SDS011;67265;52.514;13.292;2023-05-07T03:36:03;7.25;;;4.68;;
78057;SDS011;67265;52.514;13.292;2023-05-07T03:38:30;9.07;;;4.70;;
78057;SDS011;67265;52.514;13.292;2023-05-07T03:40:57;8.68;;;4.75;;
78057;SDS011;67265;52.514;13.292;2023-05-07T03:43:23;13.40;;;4.68;;
78057;SDS011;67265;52.514;13.292;2023-05-07T03:45:50;8.43;;;5.30;;
78057;SDS011;67265;52.514;13.292;2023-05-07T03:48:16;8.23;;;4.47;;
78057;SDS011;67265;52.514;13.292;2023-05-07T03:50:43;7.95;;;4.40;;
78057;SDS011;67265;52.514;13.292;2023-05-07T03:53:09;9.30;;;4.82;;
78057;SDS011;67265;52.514;13.292;2023-05-07T03:55:36;7.65;;;4.50;;
78057;SDS011;67265;52.514;13.292;2023-05-07T03:58:02;11.02;;;4.68;;
78057;SDS011;67265;52.514;13.292;2023-05-07T04:00:29;9.63;;;4.72;;
78057;SDS011;67265;52.514;13.292;2023-05-07T04:02:59;9.68;;;5.13;;
78057;SDS011;67265;52.514;13.292;2023-05-07T04:05:26;8.30;;;4.50;;
78057;SDS011;67265;52.514;13.292;2023-05-07T04:07:52;8.32;;;5.22;;
78057;SDS011;67265;52.514;13.292;2023-05-07T04:10:19;8.13;;;4.82;;
78057;SDS011;67265;52.514;13.292;2023-05-07T04:12:45;10.43;;;5.53;;
78057;SDS011;67265;52.514;13.292;2023-05-07T04:15:12;7.93;;;4.63;;
78057;SDS011;67265;52.514;13.292;2023-05-07T04:17:38;8.15;;;4.82;;
78057;SDS011;67265;52.514;13.292;2023-05-07T04:20:06;7.57;;;4.82;;
78057;SDS011;67265;52.514;13.292;2023-05-07T04:22:33;9.02;;;4.75;;
78057;SDS011;67265;52.514;13.292;2023-05-07T04:25:00;7.72;;;5.03;;
78057;SDS011;67265;52.514;13.292;2023-05-07T04:27:26;9.73;;;5.05;;
78057;SDS011;67265;52.514;13.292;2023-05-07T04:29:54;8.38;;;5.20;;
78057;SDS011;67265;52.514;13.292;2023-05-07T04:32:22;7.30;;;4.65;;
78057;SDS011;67265;52.514;13.292;2023-05-07T04:34:48;9.00;;;4.95;;
78057;SDS011;67265;52.514;13.292;2023-05-07T04:37:15;6.57;;;4.32;;
78057;SDS011;67265;52.514;13.292;2023-05-07T04:39:41;6.00;;;4.05;;
78057;SDS011;67265;52.514;13.292;2023-05-07T04:42:08;8.02;;;5.00;;
78057;SDS011;67265;52.514;13.292;2023-05-07T04:44:35;9.48;;;3.53;;
78057;SDS011;67265;52.514;13.292;2023-05-07T04:47:03;10.23;;;4.38;;
78057;SDS011;67265;52.514;13.292;2023-05-07T04:49:29;5.80;;;4.00;;
78057;SDS011;67265;52.514;13.292;2023-05-07T04:51:56;7.05;;;3.70;;
78057;SDS011;67265;52.514;13.292;2023-05-07T04:54:22;6.90;;;4.15;;
78057;SDS011;67265;52.514;13.292;2023-05-07T04:56:49;6.90;;;3.80;;
78057;SDS011;67265;52.514;13.292;2023-05-07T04:59:15;6.78;;;3.97;;
78057;SDS011;67265;52.514;13.292;2023-05-07T05:01:42;8.38;;;3.97;;
78057;SDS011;67265;52.514;13.292;2023-05-07T05:04:08;8.48;;;4.47;;
78057;SDS011;67265;52.514;13.292;2023-05-07T05:06:35;6.50;;;3.83;;
78057;SDS011;67265;52.514;13.292;2023-05-07T05:09:01;8.15;;;4.18;;
78057;SDS011;67265;52.514;13.292;2023-05-07T05:11:28;7.18;;;3.97;;
78057;SDS011;67265;52.514;13.292;2023-05-07T05:13:54;7.07;;;3.42;;
78057;SDS011;67265;52.514;13.292;2023-05-07T05:16:21;5.45;;;2.97;;
78057;SDS011;67265;52.514;13.292;2023-05-07T05:18:47;7.40;;;3.42;;
78057;SDS011;67265;52.514;13.292;2023-05-07T05:21:14;4.97;;;3.67;;
78057;SDS011;67265;52.514;13.292;2023-05-07T05:23:41;6.10;;;3.05;;
78057;SDS011;67265;52.514;13.292;2023-05-07T05:26:07;5.22;;;3.22;;
78057;SDS011;67265;52.514;13.292;2023-05-07T05:28:33;5.28;;;3.03;;
78057;SDS011;67265;52.514;13.292;2023-05-07T05:31:00;6.22;;;3.70;;
78057;SDS011;67265;52.514;13.292;2023-05-07T05:33:27;6.28;;;3.33;;
78057;SDS011;67265;52.514;13.292;2023-05-07T05:35:53;6.82;;;3.35;;
78057;SDS011;67265;52.514;13.292;2023-05-07T05:38:20;6.03;;;3.22;;
78057;SDS011;67265;52.514;13.292;2023-05-07T05:40:47;6.20;;;3.00;;
78057;SDS011;67265;52.514;13.292;2023-05-07T05:43:13;4.70;;;3.15;;
78057;SDS011;67265;52.514;13.292;2023-05-07T05:45:40;4.45;;;2.85;;
78057;SDS011;67265;52.514;13.292;2023-05-07T05:48:06;5.10;;;3.22;;
78057;SDS011;67265;52.514;13.292;2023-05-07T05:50:34;6.75;;;3.92;;
78057;SDS011;67265;52.514;13.292;2023-05-07T05:53:03;6.03;;;3.50;;
78057;SDS011;67265;52.514;13.292;2023-05-07T05:55:30;5.88;;;3.78;;
78057;SDS011;67265;52.514;13.292;2023-05-07T05:57:59;4.88;;;3.15;;
78057;SDS011;67265;52.514;13.292;2023-05-07T06:00:26;5.55;;;3.28;;
78057;SDS011;67265;52.514;13.292;2023-05-07T06:02:53;4.72;;;3.10;;
78057;SDS011;67265;52.514;13.292;2023-05-07T06:05:19;4.45;;;2.95;;
78057;SDS011;67265;52.514;13.292;2023-05-07T06:07:46;5.68;;;3.47;;
78057;SDS011;67265;52.514;13.292;2023-05-07T06:10:13;5.25;;;3.35;;
78057;SDS011;67265;52.514;13.292;2023-05-07T06:12:39;5.80;;;3.67;;
78057;SDS011;67265;52.514;13.292;2023-05-07T06:15:06;6.35;;;3.70;;
78057;SDS011;67265;52.514;13.292;2023-05-07T06:17:33;6.03;;;3.17;;
78057;SDS011;67265;52.514;13.292;2023-05-07T06:20:00;6.35;;;3.30;;
78057;SDS011;67265;52.514;13.292;2023-05-07T06:26:01;5.23;;;2.97;;
78057;SDS011;67265;52.514;13.292;2023-05-07T06:28:28;6.57;;;3.65;;
78057;SDS011;67265;52.514;13.292;2023-05-07T06:31:10;5.75;;;3.35;;
78057;SDS011;67265;52.514;13.292;2023-05-07T06:33:44;6.35;;;3.42;;
78057;SDS011;67265;52.514;13.292;2023-05-07T06:36:11;6.45;;;3.40;;
78057;SDS011;67265;52.514;13.292;2023-05-07T06:38:37;6.18;;;3.80;;
78057;SDS011;67265;52.514;13.292;2023-05-07T06:41:05;5.22;;;3.25;;
78057;SDS011;67265;52.514;13.292;2023-05-07T06:43:32;6.25;;;3.67;;
78057;SDS011;67265;52.514;13.292;2023-05-07T06:45:59;6.53;;;3.72;;
78057;SDS011;67265;52.514;13.292;2023-05-07T06:48:25;6.10;;;3.25;;
78057;SDS011;67265;52.514;13.292;2023-05-07T06:50:52;6.10;;;3.40;;
78057;SDS011;67265;52.514;13.292;2023-05-07T06:53:19;5.88;;;4.03;;
78057;SDS011;67265;52.514;13.292;2023-05-07T06:55:45;5.72;;;3.55;;
78057;SDS011;67265;52.514;13.292;2023-05-07T06:58:12;5.60;;;3.83;;
78057;SDS011;67265;52.514;13.292;2023-05-07T07:00:38;5.57;;;3.85;;
78057;SDS011;67265;52.514;13.292;2023-05-07T07:03:05;5.75;;;3.30;;
78057;SDS011;67265;52.514;13.292;2023-05-07T07:05:32;5.68;;;3.22;;
78057;SDS011;67265;52.514;13.292;2023-05-07T07:07:58;6.13;;;3.22;;
78057;SDS011;67265;52.514;13.292;2023-05-07T07:10:25;6.18;;;3.35;;
78057;SDS011;67265;52.514;13.292;2023-05-07T07:23:32;6.13;;;3.08;;
78057;SDS011;67265;52.514;13.292;2023-05-07T07:25:59;3.50;;;2.42;;
78057;SDS011;67265;52.514;13.292;2023-05-07T07:30:50;3.70;;;2.97;;
78057;SDS011;67265;52.514;13.292;2023-05-07T07:33:17;3.65;;;2.55;;
78057;SDS011;67265;52.514;13.292;2023-05-07T07:35:43;3.47;;;2.50;;
78057;SDS011;67265;52.514;13.292;2023-05-07T07:38:10;4.20;;;2.65;;
78057;SDS011;67265;52.514;13.292;2023-05-07T07:40:36;4.20;;;2.10;;
78057;SDS011;67265;52.514;13.292;2023-05-07T07:45:43;5.43;;;2.67;;
78057;SDS011;67265;52.514;13.292;2023-05-07T07:48:10;5.13;;;2.42;;
78057;SDS011;67265;52.514;13.292;2023-05-07T07:50:37;4.35;;;2.00;;
78057;SDS011;67265;52.514;13.292;2023-05-07T07:53:11;3.10;;;2.15;;
78057;SDS011;67265;52.514;13.292;2023-05-07T07:55:38;5.15;;;2.25;;
78057;SDS011;67265;52.514;13.292;2023-05-07T07:58:05;4.53;;;2.30;;
78057;SDS011;67265;52.514;13.292;2023-05-07T08:00:32;3.83;;;1.85;;
78057;SDS011;67265;52.514;13.292;2023-05-07T08:02:58;2.88;;;1.65;;
78057;SDS011;67265;52.514;13.292;2023-05-07T08:05:25;3.10;;;2.50;;
78057;SDS011;67265;52.514;13.292;2023-05-07T08:10:41;3.22;;;1.83;;
78057;SDS011;67265;52.514;13.292;2023-05-07T08:13:10;2.00;;;1.52;;
78057;SDS011;67265;52.514;13.292;2023-05-07T08:18:05;3.60;;;1.70;;
78057;SDS011;67265;52.514;13.292;2023-05-07T08:20:31;2.75;;;1.90;;
78057;SDS011;67265;52.514;13.292;2023-05-07T08:39:06;3.40;;;2.20;;
78057;SDS011;67265;52.514;13.292;2023-05-07T08:44:06;4.38;;;1.83;;
78057;SDS011;67265;52.514;13.292;2023-05-07T08:54:22;3.13;;;2.08;;
78057;SDS011;67265;52.514;13.292;2023-05-07T08:59:17;3.35;;;1.70;;
78057;SDS011;67265;52.514;13.292;2023-05-07T09:01:44;3.17;;;1.38;;
78057;SDS011;67265;52.514;13.292;2023-05-07T09:04:11;3.75;;;1.27;;
78057;SDS011;67265;52.514;13.292;2023-05-07T09:06:39;2.08;;;1.15;;
78057;SDS011;67265;52.514;13.292;2023-05-07T09:09:08;2.33;;;1.70;;
78057;SDS011;67265;52.514;13.292;2023-05-07T09:11:34;3.20;;;1.55;;
78057;SDS011;67265;52.514;13.292;2023-05-07T09:14:01;2.05;;;1.52;;
78057;SDS011;67265;52.514;13.292;2023-05-07T09:16:29;3.38;;;1.60;;
78057;SDS011;67265;52.514;13.292;2023-05-07T09:18:58;2.67;;;1.63;;
78057;SDS011;67265;52.514;13.292;2023-05-07T09:21:25;2.40;;;1.60;;
78057;SDS011;67265;52.514;13.292;2023-05-07T09:23:54;4.50;;;1.65;;
78057;SDS011;67265;52.514;13.292;2023-05-07T09:26:21;3.10;;;1.75;;
78057;SDS011;67265;52.514;13.292;2023-05-07T09:28:49;4.05;;;1.65;;
78057;SDS011;67265;52.514;13.292;2023-05-07T09:31:15;3.08;;;1.52;;
78057;SDS011;67265;52.514;13.292;2023-05-07T09:33:45;2.38;;;1.90;;
78057;SDS011;67265;52.514;13.292;2023-05-07T09:36:12;3.90;;;1.90;;
78057;SDS011;67265;52.514;13.292;2023-05-07T09:38:39;2.58;;;1.55;;
78057;SDS011;67265;52.514;13.292;2023-05-07T09:43:33;2.47;;;1.48;;
78057;SDS011;67265;52.514;13.292;2023-05-07T09:54:54;2.88;;;1.33;;
78057;SDS011;67265;52.514;13.292;2023-05-07T09:57:23;1.92;;;1.23;;
78057;SDS011;67265;52.514;13.292;2023-05-07T10:02:46;4.43;;;1.40;;
78057;SDS011;67265;52.514;13.292;2023-05-07T10:10:52;2.75;;;1.08;;
78057;SDS011;67265;52.514;13.292;2023-05-07T10:13:19;2.92;;;1.33;;
78057;SDS011;67265;52.514;13.292;2023-05-07T10:20:51;2.42;;;1.33;;
78057;SDS011;67265;52.514;13.292;2023-05-07T10:23:19;3.28;;;1.45;;
78057;SDS011;67265;52.514;13.292;2023-05-07T10:25:49;2.08;;;1.33;;
78057;SDS011;67265;52.514;13.292;2023-05-07T10:28:18;2.30;;;1.23;;
78057;SDS011;67265;52.514;13.292;2023-05-07T10:33:31;2.42;;;1.05;;
78057;SDS011;67265;52.514;13.292;2023-05-07T10:35:59;2.88;;;1.10;;
78057;SDS011;67265;52.514;13.292;2023-05-07T10:38:27;2.65;;;1.25;;
78057;SDS011;67265;52.514;13.292;2023-05-07T10:40:54;2.10;;;1.17;;
78057;SDS011;67265;52.514;13.292;2023-05-07T10:51:32;1.55;;;0.90;;
78057;SDS011;67265;52.514;13.292;2023-05-07T10:56:57;1.45;;;0.80;;
78057;SDS011;67265;52.514;13.292;2023-05-07T11:07:55;2.17;;;0.80;;
78057;SDS011;67265;52.514;13.292;2023-05-07T11:18:50;2.20;;;1.17;;
78057;SDS011;67265;52.514;13.292;2023-05-07T11:32:04;1.48;;;0.70;;
78057;SDS011;67265;52.514;13.292;2023-05-07T11:34:32;1.48;;;0.80;;
78057;SDS011;67265;52.514;13.292;2023-05-07T11:36:59;1.35;;;0.90;;
78057;SDS011;67265;52.514;13.292;2023-05-07T11:42:34;1.38;;;0.98;;
78057;SDS011;67265;52.514;13.292;2023-05-07T11:45:01;1.92;;;0.80;;
78057;SDS011;67265;52.514;13.292;2023-05-07T11:57:43;1.55;;;1.00;;
78057;SDS011;67265;52.514;13.292;2023-05-07T12:03:02;2.83;;;1.13;;
78057;SDS011;67265;52.514;13.292;2023-05-07T12:05:32;1.73;;;0.98;;
78057;SDS011;67265;52.514;13.292;2023-05-07T12:08:00;2.40;;;0.80;;
78057;SDS011;67265;52.514;13.292;2023-05-07T12:13:17;1.75;;;1.08;;
78057;SDS011;67265;52.514;13.292;2023-05-07T12:15:43;2.58;;;0.77;;
78057;SDS011;67265;52.514;13.292;2023-05-07T12:18:13;3.33;;;1.45;;
78057;SDS011;67265;52.514;13.292;2023-05-07T12:20:40;9.68;;;4.00;;
78057;SDS011;67265;52.514;13.292;2023-05-07T12:25:36;4.88;;;1.20;;
78057;SDS011;67265;52.514;13.292;2023-05-07T12:30:32;5.45;;;1.80;;
78057;SDS011;67265;52.514;13.292;2023-05-07T12:33:02;5.38;;;1.48;;
78057;SDS011;67265;52.514;13.292;2023-05-07T12:38:14;4.40;;;1.92;;
78057;SDS011;67265;52.514;13.292;2023-05-07T12:43:14;7.45;;;3.28;;
78057;SDS011;67265;52.514;13.292;2023-05-07T12:45:45;3.08;;;1.27;;
78057;SDS011;67265;52.514;13.292;2023-05-07T12:50:38;1.75;;;0.90;;
78057;SDS011;67265;52.514;13.292;2023-05-07T12:53:05;2.63;;;1.40;;
78057;SDS011;67265;52.514;13.292;2023-05-07T12:55:43;1.20;;;0.63;;
78057;SDS011;67265;52.514;13.292;2023-05-07T12:58:17;2.00;;;0.90;;
78057;SDS011;67265;52.514;13.292;2023-05-07T13:00:48;3.00;;;0.77;;
78057;SDS011;67265;52.514;13.292;2023-05-07T13:05:53;1.30;;;0.73;;
78057;SDS011;67265;52.514;13.292;2023-05-07T13:08:24;3.28;;;0.70;;
78057;SDS011;67265;52.514;13.292;2023-05-07T13:10:52;2.35;;;0.80;;
78057;SDS011;67265;52.514;13.292;2023-05-07T13:13:19;1.70;;;0.77;;
78057;SDS011;67265;52.514;13.292;2023-05-07T13:15:47;2.17;;;0.68;;
78057;SDS011;67265;52.514;13.292;2023-05-07T13:18:13;3.05;;;1.23;;
78057;SDS011;67265;52.514;13.292;2023-05-07T13:28:37;1.98;;;0.68;;
78057;SDS011;67265;52.514;13.292;2023-05-07T13:33:38;2.53;;;0.90;;
78057;SDS011;67265;52.514;13.292;2023-05-07T13:36:05;1.45;;;0.80;;
78057;SDS011;67265;52.514;13.292;2023-05-07T13:38:32;1.30;;;0.50;;
78057;SDS011;67265;52.514;13.292;2023-05-07T13:40:59;1.88;;;0.75;;
78057;SDS011;67265;52.514;13.292;2023-05-07T13:48:19;1.55;;;0.80;;
78057;SDS011;67265;52.514;13.292;2023-05-07T13:50:45;2.15;;;0.75;;
78057;SDS011;67265;52.514;13.292;2023-05-07T13:53:12;1.95;;;0.80;;
78057;SDS011;67265;52.514;13.292;2023-05-07T13:55:39;1.25;;;0.65;;
78057;SDS011;67265;52.514;13.292;2023-05-07T13:58:06;2.05;;;0.88;;
78057;SDS011;67265;52.514;13.292;2023-05-07T14:00:32;1.77;;;0.68;;
78057;SDS011;67265;52.514;13.292;2023-05-07T14:02:59;1.20;;;0.70;;
78057;SDS011;67265;52.514;13.292;2023-05-07T14:05:25;1.67;;;0.75;;
78057;SDS011;67265;52.514;13.292;2023-05-07T14:07:54;1.58;;;0.73;;
78057;SDS011;67265;52.514;13.292;2023-05-07T14:10:23;2.17;;;0.80;;
78057;SDS011;67265;52.514;13.292;2023-05-07T14:12:49;1.00;;;0.57;;
78057;SDS011;67265;52.514;13.292;2023-05-07T14:17:46;1.95;;;0.93;;
78057;SDS011;67265;52.514;13.292;2023-05-07T14:20:13;1.50;;;0.77;;
78057;SDS011;67265;52.514;13.292;2023-05-07T14:22:40;2.63;;;1.30;;
78057;SDS011;67265;52.514;13.292;2023-05-07T14:25:07;1.58;;;0.68;;
78057;SDS011;67265;52.514;13.292;2023-05-07T14:27:36;1.42;;;0.63;;
78057;SDS011;67265;52.514;13.292;2023-05-07T14:30:03;1.35;;;0.85;;
78057;SDS011;67265;52.514;13.292;2023-05-07T14:32:29;2.33;;;0.82;;
78057;SDS011;67265;52.514;13.292;2023-05-07T14:34:56;1.67;;;0.73;;
78057;SDS011;67265;52.514;13.292;2023-05-07T14:37:23;1.85;;;1.20;;
78057;SDS011;67265;52.514;13.292;2023-05-07T14:39:50;1.20;;;0.80;;
78057;SDS011;67265;52.514;13.292;2023-05-07T14:42:17;2.35;;;0.82;;
78057;SDS011;67265;52.514;13.292;2023-05-07T14:44:44;2.03;;;0.82;;
78057;SDS011;67265;52.514;13.292;2023-05-07T14:47:11;1.40;;;0.98;;
78057;SDS011;67265;52.514;13.292;2023-05-07T14:49:38;1.90;;;0.85;;
78057;SDS011;67265;52.514;13.292;2023-05-07T14:52:05;1.63;;;1.05;;
78057;SDS011;67265;52.514;13.292;2023-05-07T14:54:35;3.13;;;1.00;;
78057;SDS011;67265;52.514;13.292;2023-05-07T14:57:04;1.40;;;0.55;;
78057;SDS011;67265;52.514;13.292;2023-05-07T14:59:32;1.77;;;0.73;;
78057;SDS011;67265;52.514;13.292;2023-05-07T15:02:01;1.60;;;1.33;;
78057;SDS011;67265;52.514;13.292;2023-05-07T15:04:32;1.42;;;0.60;;
78057;SDS011;67265;52.514;13.292;2023-05-07T15:06:58;1.10;;;0.55;;
78057;SDS011;67265;52.514;13.292;2023-05-07T15:09:25;1.10;;;0.52;;
78057;SDS011;67265;52.514;13.292;2023-05-07T15:11:51;1.33;;;0.73;;
78057;SDS011;67265;52.514;13.292;2023-05-07T15:14:18;1.10;;;0.80;;
78057;SDS011;67265;52.514;13.292;2023-05-07T15:16:45;2.13;;;1.30;;
78057;SDS011;67265;52.514;13.292;2023-05-07T15:19:11;1.85;;;1.00;;
78057;SDS011;67265;52.514;13.292;2023-05-07T15:21:40;2.10;;;0.77;;
78057;SDS011;67265;52.514;13.292;2023-05-07T15:24:07;1.33;;;0.68;;
78057;SDS011;67265;52.514;13.292;2023-05-07T15:26:35;2.60;;;0.82;;
78057;SDS011;67265;52.514;13.292;2023-05-07T15:29:02;1.35;;;0.68;;
78057;SDS011;67265;52.514;13.292;2023-05-07T15:31:34;2.20;;;0.90;;
78057;SDS011;67265;52.514;13.292;2023-05-07T15:34:00;1.40;;;0.70;;
78057;SDS011;67265;52.514;13.292;2023-05-07T15:36:27;1.63;;;0.60;;
78057;SDS011;67265;52.514;13.292;2023-05-07T15:38:53;1.45;;;0.55;;
78057;SDS011;67265;52.514;13.292;2023-05-07T15:41:20;2.30;;;0.70;;
78057;SDS011;67265;52.514;13.292;2023-05-07T15:43:48;1.55;;;0.75;;
78057;SDS011;67265;52.514;13.292;2023-05-07T15:46:22;1.75;;;0.90;;
78057;SDS011;67265;52.514;13.292;2023-05-07T15:48:51;1.23;;;0.68;;
78057;SDS011;67265;52.514;13.292;2023-05-07T15:51:18;1.85;;;0.70;;
78057;SDS011;67265;52.514;13.292;2023-05-07T15:53:46;1.35;;;0.70;;
78057;SDS011;67265;52.514;13.292;2023-05-07T15:56:12;1.55;;;0.82;;
78057;SDS011;67265;52.514;13.292;2023-05-07T15:58:39;1.27;;;0.73;;
78057;SDS011;67265;52.514;13.292;2023-05-07T16:01:05;1.85;;;1.02;;
78057;SDS011;67265;52.514;13.292;2023-05-07T16:03:32;1.45;;;0.90;;
78057;SDS011;67265;52.514;13.292;2023-05-07T16:05:59;3.78;;;1.40;;
78057;SDS011;67265;52.514;13.292;2023-05-07T16:08:26;1.80;;;0.80;;
78057;SDS011;67265;52.514;13.292;2023-05-07T16:10:53;2.20;;;0.90;;
78057;SDS011;67265;52.514;13.292;2023-05-07T16:13:20;2.92;;;0.98;;
78057;SDS011;67265;52.514;13.292;2023-05-07T16:15:47;2.00;;;0.80;;
78057;SDS011;67265;52.514;13.292;2023-05-07T16:18:13;1.10;;;0.68;;
78057;SDS011;67265;52.514;13.292;2023-05-07T16:20:42;3.00;;;1.20;;
78057;SDS011;67265;52.514;13.292;2023-05-07T16:23:09;3.03;;;1.25;;
78057;SDS011;67265;52.514;13.292;2023-05-07T16:25:35;1.58;;;0.80;;
78057;SDS011;67265;52.514;13.292;2023-05-07T16:28:02;2.60;;;0.73;;
78057;SDS011;67265;52.514;13.292;2023-05-07T16:30:28;2.25;;;1.17;;
78057;SDS011;67265;52.514;13.292;2023-05-07T16:32:55;2.92;;;1.20;;
78057;SDS011;67265;52.514;13.292;2023-05-07T16:35:22;3.80;;;1.15;;
78057;SDS011;67265;52.514;13.292;2023-05-07T16:37:48;1.70;;;0.80;;
78057;SDS011;67265;52.514;13.292;2023-05-07T16:40:15;1.73;;;1.00;;
78057;SDS011;67265;52.514;13.292;2023-05-07T16:42:42;2.25;;;1.00;;
78057;SDS011;67265;52.514;13.292;2023-05-07T16:45:09;2.50;;;0.98;;
78057;SDS011;67265;52.514;13.292;2023-05-07T16:47:37;5.75;;;1.23;;
78057;SDS011;67265;52.514;13.292;2023-05-07T16:50:03;2.60;;;0.90;;
78057;SDS011;67265;52.514;13.292;2023-05-07T16:52:31;4.53;;;1.75;;
78057;SDS011;67265;52.514;13.292;2023-05-07T16:54:57;2.58;;;1.30;;
78057;SDS011;67265;52.514;13.292;2023-05-07T16:57:27;2.05;;;0.95;;
78057;SDS011;67265;52.514;13.292;2023-05-07T16:59:55;2.53;;;1.27;;
78057;SDS011;67265;52.514;13.292;2023-05-07T17:02:22;1.70;;;1.00;;
78057;SDS011;67265;52.514;13.292;2023-05-07T17:04:48;2.05;;;1.00;;
78057;SDS011;67265;52.514;13.292;2023-05-07T17:07:15;2.03;;;0.80;;
78057;SDS011;67265;52.514;13.292;2023-05-07T17:09:42;2.22;;;0.95;;
78057;SDS011;67265;52.514;13.292;2023-05-07T17:12:08;2.10;;;1.40;;
78057;SDS011;67265;52.514;13.292;2023-05-07T17:14:35;2.40;;;1.08;;
78057;SDS011;67265;52.514;13.292;2023-05-07T17:17:01;1.90;;;1.02;;
78057;SDS011;67265;52.514;13.292;2023-05-07T17:19:28;2.40;;;0.90;;
78057;SDS011;67265;52.514;13.292;2023-05-07T17:21:55;3.33;;;1.33;;
78057;SDS011;67265;52.514;13.292;2023-05-07T17:24:21;2.63;;;1.23;;